<?xml version='1.0' encoding='UTF-8'?><gpx version="1.1" creator="JPX - https://github.com/jenetics/jpx" xmlns="http://www.topografix.com/GPX/1/1"><trk><trkseg><trkpt lat="35.27757850169828" lon="-120.66264096154413"><ele>65.0</ele><time>2026-04-20T13:39:08Z</time></trkpt><trkpt lat="35.27757909444383" lon="-120.66273162997899"><ele>65.0</ele><time>2026-04-20T13:39:14Z</time></trkpt><trkpt lat="35.27754908981841" lon="-120.66280691293963"><ele>65.0</ele><time>2026-04-20T13:39:27Z</time></trkpt><trkpt lat="35.27749334140425" lon="-120.66289809596806"><ele>65.0</ele><time>2026-04-20T13:39:30Z</time></trkpt><trkpt lat="35.27743883958683" lon="-120.66298005611641"><ele>65.0</ele><time>2026-04-20T13:39:33Z</time></trkpt><trkpt lat="35.27736438841016" lon="-120.66302909095177"><ele>65.0</ele><time>2026-04-20T13:39:35Z</time></trkpt><trkpt lat="35.27729703129666" lon="-120.66298985267342"><ele>65.0</ele><time>2026-04-20T13:39:37Z</time></trkpt><trkpt lat="35.27722708892473" lon="-120.6629715937158"><ele>65.0</ele><time>2026-04-20T13:39:39Z</time></trkpt><trkpt lat="35.277140217403776" lon="-120.66296125233549"><ele>65.0</ele><time>2026-04-20T13:39:41Z</time></trkpt><trkpt lat="35.277038480951084" lon="-120.66290345808117"><ele>65.0</ele><time>2026-04-20T13:39:43Z</time></trkpt><trkpt lat="35.27698382198893" lon="-120.66285780490425"><ele>65.0</ele><time>2026-04-20T13:39:44Z</time></trkpt><trkpt lat="35.27690839114903" lon="-120.66275583744226"><ele>65.0</ele><time>2026-04-20T13:39:46Z</time></trkpt><trkpt lat="35.27685814556711" lon="-120.66270818097493"><ele>65.2</ele><time>2026-04-20T13:39:47Z</time></trkpt><trkpt lat="35.27676195643679" lon="-120.66262307331536"><ele>65.4</ele><time>2026-04-20T13:39:48.999Z</time></trkpt><trkpt lat="35.276708444573885" lon="-120.66258115837293"><ele>65.6</ele><time>2026-04-20T13:39:49.999Z</time></trkpt><trkpt lat="35.27660741848689" lon="-120.6624918850783"><ele>65.8</ele><time>2026-04-20T13:39:51.999Z</time></trkpt><trkpt lat="35.276557541100956" lon="-120.66244224546767"><ele>66.0</ele><time>2026-04-20T13:39:52.999Z</time></trkpt><trkpt lat="35.27646920886019" lon="-120.66234366319138"><ele>66.39999999999999</ele><time>2026-04-20T13:39:54.999Z</time></trkpt><trkpt lat="35.276366890143834" lon="-120.66226617639822"><ele>66.8</ele><time>2026-04-20T13:39:56.999Z</time></trkpt><trkpt lat="35.27627833791096" lon="-120.66218717410106"><ele>67.19999999999999</ele><time>2026-04-20T13:39:58.999Z</time></trkpt><trkpt lat="35.276206666878885" lon="-120.66210816405578"><ele>67.6</ele><time>2026-04-20T13:40:00.999Z</time></trkpt><trkpt lat="35.27613199541046" lon="-120.66205072852227"><ele>68.0</ele><time>2026-04-20T13:40:02.999Z</time></trkpt><trkpt lat="35.27607083111866" lon="-120.662006103964"><ele>68.5</ele><time>2026-04-20T13:40:04.999Z</time></trkpt><trkpt lat="35.275999863749604" lon="-120.66194032035273"><ele>69.0</ele><time>2026-04-20T13:40:07.999Z</time></trkpt><trkpt lat="35.27594322910541" lon="-120.66189618108658"><ele>69.5</ele><time>2026-04-20T13:40:09.999Z</time></trkpt><trkpt lat="35.275887212991506" lon="-120.66183406291908"><ele>70.0</ele><time>2026-04-20T13:40:12.999Z</time></trkpt><trkpt lat="35.27580475600511" lon="-120.66177603197433"><ele>70.5</ele><time>2026-04-20T13:40:15.999Z</time></trkpt><trkpt lat="35.27574839722936" lon="-120.66171120398428"><ele>71.0</ele><time>2026-04-20T13:40:17.999Z</time></trkpt><trkpt lat="35.275693819340006" lon="-120.66164282625124"><ele>71.0</ele><time>2026-04-20T13:40:19.999Z</time></trkpt><trkpt lat="35.27562496751911" lon="-120.66159895987866"><ele>71.0</ele><time>2026-04-20T13:40:21.999Z</time></trkpt><trkpt lat="35.27555805049966" lon="-120.6615269421299"><ele>71.0</ele><time>2026-04-20T13:40:23.999Z</time></trkpt><trkpt lat="35.275488979888166" lon="-120.66147453186042"><ele>71.0</ele><time>2026-04-20T13:40:25.999Z</time></trkpt><trkpt lat="35.27542206206599" lon="-120.661410802602"><ele>71.0</ele><time>2026-04-20T13:40:27.999Z</time></trkpt><trkpt lat="35.2753530784754" lon="-120.66134695829663"><ele>71.0</ele><time>2026-04-20T13:40:29.999Z</time></trkpt><trkpt lat="35.27527311742645" lon="-120.66127806868974"><ele>70.6</ele><time>2026-04-20T13:40:31.999Z</time></trkpt><trkpt lat="35.27519502841965" lon="-120.66121232304897"><ele>70.19999999999999</ele><time>2026-04-20T13:40:33.999Z</time></trkpt><trkpt lat="35.27511690212916" lon="-120.66114766964397"><ele>69.80000000000001</ele><time>2026-04-20T13:40:35.999Z</time></trkpt><trkpt lat="35.275043729343714" lon="-120.66107718230579"><ele>69.4</ele><time>2026-04-20T13:40:37.999Z</time></trkpt><trkpt lat="35.274970422861486" lon="-120.66101641704361"><ele>69.0</ele><time>2026-04-20T13:40:39.999Z</time></trkpt><trkpt lat="35.27489456865521" lon="-120.66095344009483"><ele>69.0</ele><time>2026-04-20T13:40:41.999Z</time></trkpt><trkpt lat="35.274806082469986" lon="-120.66089089798488"><ele>69.0</ele><time>2026-04-20T13:40:43.999Z</time></trkpt><trkpt lat="35.27472604095336" lon="-120.66080084132595"><ele>69.0</ele><time>2026-04-20T13:40:45.999Z</time></trkpt><trkpt lat="35.274629683413714" lon="-120.66071538612567"><ele>69.0</ele><time>2026-04-20T13:40:47.999Z</time></trkpt><trkpt lat="35.27453831947018" lon="-120.66063300624528"><ele>69.0</ele><time>2026-04-20T13:40:50Z</time></trkpt><trkpt lat="35.27448728857592" lon="-120.66057986397745"><ele>68.83333333333333</ele><time>2026-04-20T13:40:51Z</time></trkpt><trkpt lat="35.27443122387945" lon="-120.66052951123311"><ele>68.66666666666667</ele><time>2026-04-20T13:40:52Z</time></trkpt><trkpt lat="35.27437439946756" lon="-120.66047549813794"><ele>68.5</ele><time>2026-04-20T13:40:53Z</time></trkpt><trkpt lat="35.27431107527845" lon="-120.66042198195184"><ele>68.33333333333334</ele><time>2026-04-20T13:40:54Z</time></trkpt><trkpt lat="35.27424695068544" lon="-120.66036241455366"><ele>68.16666666666667</ele><time>2026-04-20T13:40:55Z</time></trkpt><trkpt lat="35.274186826471606" lon="-120.66030061243218"><ele>68.0</ele><time>2026-04-20T13:40:56Z</time></trkpt><trkpt lat="35.27412175234304" lon="-120.66024078775544"><ele>67.83333333333334</ele><time>2026-04-20T13:40:57Z</time></trkpt><trkpt lat="35.27405719587631" lon="-120.66018133681327"><ele>67.66666666666667</ele><time>2026-04-20T13:40:58Z</time></trkpt><trkpt lat="35.27399323699106" lon="-120.66012503308566"><ele>67.5</ele><time>2026-04-20T13:40:59Z</time></trkpt><trkpt lat="35.27392672772494" lon="-120.66008080430198"><ele>67.33333333333333</ele><time>2026-04-20T13:41:00Z</time></trkpt><trkpt lat="35.27386420739362" lon="-120.66002878563614"><ele>67.16666666666666</ele><time>2026-04-20T13:41:01Z</time></trkpt><trkpt lat="35.273803586719886" lon="-120.65997435585872"><ele>67.0</ele><time>2026-04-20T13:41:02Z</time></trkpt><trkpt lat="35.27374159103795" lon="-120.65992443713839"><ele>66.83333333333333</ele><time>2026-04-20T13:41:03Z</time></trkpt><trkpt lat="35.27368469706455" lon="-120.65987402962986"><ele>66.66666666666666</ele><time>2026-04-20T13:41:04Z</time></trkpt><trkpt lat="35.27362234974784" lon="-120.65982345958761"><ele>66.5</ele><time>2026-04-20T13:41:05Z</time></trkpt><trkpt lat="35.27356806080442" lon="-120.65975298557777"><ele>66.33333333333333</ele><time>2026-04-20T13:41:06Z</time></trkpt><trkpt lat="35.27351414741767" lon="-120.65970470011598"><ele>66.16666666666667</ele><time>2026-04-20T13:41:07Z</time></trkpt><trkpt lat="35.27345968028424" lon="-120.6596559186889"><ele>66.0</ele><time>2026-04-20T13:41:08Z</time></trkpt><trkpt lat="35.27336283394815" lon="-120.65956872051059"><ele>66.0</ele><time>2026-04-20T13:41:10Z</time></trkpt><trkpt lat="35.27326804341375" lon="-120.65948347448692"><ele>66.0</ele><time>2026-04-20T13:41:12Z</time></trkpt><trkpt lat="35.27316725752825" lon="-120.65941327968174"><ele>66.0</ele><time>2026-04-20T13:41:14Z</time></trkpt><trkpt lat="35.27308413388202" lon="-120.65931808290837"><ele>66.0</ele><time>2026-04-20T13:41:16Z</time></trkpt><trkpt lat="35.27299723424168" lon="-120.65923982534837"><ele>66.25</ele><time>2026-04-20T13:41:18Z</time></trkpt><trkpt lat="35.27290829555954" lon="-120.65915961044081"><ele>66.5</ele><time>2026-04-20T13:41:20Z</time></trkpt><trkpt lat="35.272818622898555" lon="-120.65907873355832"><ele>66.75</ele><time>2026-04-20T13:41:22Z</time></trkpt><trkpt lat="35.272713731486135" lon="-120.65902151636116"><ele>67.0</ele><time>2026-04-20T13:41:24Z</time></trkpt><trkpt lat="35.272633482753925" lon="-120.65891184826641"><ele>67.0</ele><time>2026-04-20T13:41:26Z</time></trkpt><trkpt lat="35.2725343842179" lon="-120.65882258617854"><ele>67.0</ele><time>2026-04-20T13:41:28Z</time></trkpt><trkpt lat="35.27248161910876" lon="-120.65877488019986"><ele>67.0</ele><time>2026-04-20T13:41:29Z</time></trkpt><trkpt lat="35.27242593798109" lon="-120.65872439856429"><ele>67.0</ele><time>2026-04-20T13:41:30Z</time></trkpt><trkpt lat="35.27237260813021" lon="-120.65867604864793"><ele>67.0</ele><time>2026-04-20T13:41:31Z</time></trkpt><trkpt lat="35.27231039412626" lon="-120.65862343256288"><ele>67.0</ele><time>2026-04-20T13:41:32Z</time></trkpt><trkpt lat="35.27225211411901" lon="-120.65857437031036"><ele>67.5</ele><time>2026-04-20T13:41:33Z</time></trkpt><trkpt lat="35.2721929345885" lon="-120.65852455080716"><ele>68.0</ele><time>2026-04-20T13:41:34Z</time></trkpt><trkpt lat="35.272110642167554" lon="-120.6585177756487"><ele>68.5</ele><time>2026-04-20T13:41:35Z</time></trkpt><trkpt lat="35.27204675385114" lon="-120.65846823680342"><ele>69.0</ele><time>2026-04-20T13:41:36Z</time></trkpt><trkpt lat="35.271983638895605" lon="-120.65842121439088"><ele>69.5</ele><time>2026-04-20T13:41:37Z</time></trkpt><trkpt lat="35.27191825568474" lon="-120.65837247586805"><ele>70.0</ele><time>2026-04-20T13:41:38Z</time></trkpt><trkpt lat="35.27185611671926" lon="-120.65832373857195"><ele>70.0</ele><time>2026-04-20T13:41:39Z</time></trkpt><trkpt lat="35.271796245055576" lon="-120.6582719786365"><ele>70.0</ele><time>2026-04-20T13:41:40Z</time></trkpt><trkpt lat="35.271732342684516" lon="-120.65822443824781"><ele>70.0</ele><time>2026-04-20T13:41:41Z</time></trkpt><trkpt lat="35.27167549963799" lon="-120.6581780242447"><ele>70.0</ele><time>2026-04-20T13:41:42Z</time></trkpt><trkpt lat="35.27161345991421" lon="-120.65813121136324"><ele>70.0</ele><time>2026-04-20T13:41:43Z</time></trkpt><trkpt lat="35.271556393870306" lon="-120.65808532937278"><ele>70.0</ele><time>2026-04-20T13:41:44Z</time></trkpt><trkpt lat="35.271541559535294" lon="-120.65797079449689"><ele>70.0</ele><time>2026-04-20T13:41:45Z</time></trkpt><trkpt lat="35.27148566351579" lon="-120.6579280504784"><ele>70.0</ele><time>2026-04-20T13:41:46Z</time></trkpt><trkpt lat="35.27134625516571" lon="-120.65792224470913"><ele>70.0</ele><time>2026-04-20T13:41:48Z</time></trkpt><trkpt lat="35.27124674928993" lon="-120.65784679303201"><ele>70.0</ele><time>2026-04-20T13:41:50Z</time></trkpt><trkpt lat="35.27114850646262" lon="-120.6577700087353"><ele>70.0</ele><time>2026-04-20T13:41:52Z</time></trkpt><trkpt lat="35.27105028431368" lon="-120.65769476580154"><ele>70.16666666666666</ele><time>2026-04-20T13:41:54Z</time></trkpt><trkpt lat="35.27094904883181" lon="-120.65761708440573"><ele>70.33333333333333</ele><time>2026-04-20T13:41:55.999Z</time></trkpt><trkpt lat="35.27089704986231" lon="-120.65757171870865"><ele>70.5</ele><time>2026-04-20T13:41:56.999Z</time></trkpt><trkpt lat="35.27079062427475" lon="-120.65749029167195"><ele>70.66666666666667</ele><time>2026-04-20T13:41:58.999Z</time></trkpt><trkpt lat="35.27073626020334" lon="-120.6574460024726"><ele>70.83333333333334</ele><time>2026-04-20T13:41:59.999Z</time></trkpt><trkpt lat="35.27068209490922" lon="-120.6574047830784"><ele>71.0</ele><time>2026-04-20T13:42:00.999Z</time></trkpt><trkpt lat="35.27062801320558" lon="-120.65736270948369"><ele>70.57142857142857</ele><time>2026-04-20T13:42:01.999Z</time></trkpt><trkpt lat="35.27056845611472" lon="-120.65731691764239"><ele>70.14285714285714</ele><time>2026-04-20T13:42:02.999Z</time></trkpt><trkpt lat="35.27051060806361" lon="-120.65727196240307"><ele>69.71428571428571</ele><time>2026-04-20T13:42:03.999Z</time></trkpt><trkpt lat="35.270452220488586" lon="-120.65722542798171"><ele>69.28571428571428</ele><time>2026-04-20T13:42:04.999Z</time></trkpt><trkpt lat="35.27039486526232" lon="-120.65717949682792"><ele>68.85714285714286</ele><time>2026-04-20T13:42:05.999Z</time></trkpt><trkpt lat="35.270329506503046" lon="-120.65713135538353"><ele>68.42857142857142</ele><time>2026-04-20T13:42:06.999Z</time></trkpt><trkpt lat="35.27026791008102" lon="-120.65707815977756"><ele>68.0</ele><time>2026-04-20T13:42:07.999Z</time></trkpt><trkpt lat="35.270203407498826" lon="-120.65702927203239"><ele>67.99999999999999</ele><time>2026-04-20T13:42:08.999Z</time></trkpt><trkpt lat="35.270137528222946" lon="-120.6569811310999"><ele>68.0</ele><time>2026-04-20T13:42:09.999Z</time></trkpt><trkpt lat="35.27007283418878" lon="-120.65693254657242"><ele>68.0</ele><time>2026-04-20T13:42:10.999Z</time></trkpt><trkpt lat="35.270008607766" lon="-120.65688725603957"><ele>68.0</ele><time>2026-04-20T13:42:11.999Z</time></trkpt><trkpt lat="35.269949210346915" lon="-120.65684197927847"><ele>68.0</ele><time>2026-04-20T13:42:12.999Z</time></trkpt><trkpt lat="35.26988964472381" lon="-120.6567931338109"><ele>67.99999999999999</ele><time>2026-04-20T13:42:13.999Z</time></trkpt><trkpt lat="35.26982946908505" lon="-120.65674674054"><ele>68.0</ele><time>2026-04-20T13:42:14.999Z</time></trkpt><trkpt lat="35.26977005756009" lon="-120.65670259460336"><ele>68.14285714285714</ele><time>2026-04-20T13:42:15.999Z</time></trkpt><trkpt lat="35.26970746813506" lon="-120.65666187129601"><ele>68.28571428571428</ele><time>2026-04-20T13:42:16.999Z</time></trkpt><trkpt lat="35.26964994222657" lon="-120.65661702833295"><ele>68.42857142857143</ele><time>2026-04-20T13:42:17.999Z</time></trkpt><trkpt lat="35.26959071312879" lon="-120.65656999628116"><ele>68.57142857142857</ele><time>2026-04-20T13:42:18.999Z</time></trkpt><trkpt lat="35.269530282142206" lon="-120.65652102845313"><ele>68.71428571428572</ele><time>2026-04-20T13:42:19.999Z</time></trkpt><trkpt lat="35.26947141691029" lon="-120.65647461728416"><ele>68.85714285714286</ele><time>2026-04-20T13:42:20.999Z</time></trkpt><trkpt lat="35.26941167902617" lon="-120.65643175157248"><ele>69.0</ele><time>2026-04-20T13:42:21.999Z</time></trkpt><trkpt lat="35.26935098638597" lon="-120.65638627533544"><ele>69.0</ele><time>2026-04-20T13:42:22.999Z</time></trkpt><trkpt lat="35.26930296528405" lon="-120.65631285452548"><ele>69.0</ele><time>2026-04-20T13:42:23.999Z</time></trkpt><trkpt lat="35.26924173906815" lon="-120.65626618403118"><ele>69.0</ele><time>2026-04-20T13:42:24.999Z</time></trkpt><trkpt lat="35.26917787732645" lon="-120.65621740481538"><ele>69.0</ele><time>2026-04-20T13:42:25.999Z</time></trkpt><trkpt lat="35.26910783834617" lon="-120.65619552717556"><ele>69.0</ele><time>2026-04-20T13:42:26.999Z</time></trkpt><trkpt lat="35.26904729049312" lon="-120.6561479189535"><ele>69.0</ele><time>2026-04-20T13:42:27.999Z</time></trkpt><trkpt lat="35.268985866633365" lon="-120.65610190195054"><ele>69.0</ele><time>2026-04-20T13:42:28.999Z</time></trkpt><trkpt lat="35.2689248495704" lon="-120.65605531864405"><ele>68.85714285714286</ele><time>2026-04-20T13:42:29.999Z</time></trkpt><trkpt lat="35.268864397310416" lon="-120.65600931966021"><ele>68.71428571428572</ele><time>2026-04-20T13:42:30.999Z</time></trkpt><trkpt lat="35.2688010613744" lon="-120.65596184217837"><ele>68.57142857142857</ele><time>2026-04-20T13:42:31.999Z</time></trkpt><trkpt lat="35.268740527808575" lon="-120.65590839588647"><ele>68.42857142857143</ele><time>2026-04-20T13:42:32.999Z</time></trkpt><trkpt lat="35.26867861632632" lon="-120.65586101376091"><ele>68.28571428571428</ele><time>2026-04-20T13:42:33.999Z</time></trkpt><trkpt lat="35.26861646884653" lon="-120.65580952016533"><ele>68.14285714285714</ele><time>2026-04-20T13:42:34.999Z</time></trkpt><trkpt lat="35.268557224037565" lon="-120.65575508333492"><ele>68.0</ele><time>2026-04-20T13:42:35.999Z</time></trkpt><trkpt lat="35.26849597978591" lon="-120.65570624011004"><ele>67.99999999999999</ele><time>2026-04-20T13:42:36.999Z</time></trkpt><trkpt lat="35.26843655616283" lon="-120.65565721287216"><ele>68.0</ele><time>2026-04-20T13:42:37.999Z</time></trkpt><trkpt lat="35.26837596484858" lon="-120.65560550891982"><ele>68.0</ele><time>2026-04-20T13:42:38.999Z</time></trkpt><trkpt lat="35.26831837088059" lon="-120.65555508965105"><ele>68.0</ele><time>2026-04-20T13:42:39.999Z</time></trkpt><trkpt lat="35.26825676573739" lon="-120.65550502928826"><ele>68.0</ele><time>2026-04-20T13:42:40.999Z</time></trkpt><trkpt lat="35.268197083171785" lon="-120.65545907917091"><ele>67.99999999999999</ele><time>2026-04-20T13:42:41.999Z</time></trkpt><trkpt lat="35.268139643699136" lon="-120.65541047836675"><ele>68.0</ele><time>2026-04-20T13:42:42.999Z</time></trkpt><trkpt lat="35.268081260518365" lon="-120.65536028620643"><ele>67.57142857142857</ele><time>2026-04-20T13:42:43.999Z</time></trkpt><trkpt lat="35.268024932874404" lon="-120.65530860632464"><ele>67.14285714285714</ele><time>2026-04-20T13:42:44.999Z</time></trkpt><trkpt lat="35.26796855383255" lon="-120.65525907167954"><ele>66.71428571428572</ele><time>2026-04-20T13:42:45.999Z</time></trkpt><trkpt lat="35.26791031093506" lon="-120.65521264490408"><ele>66.28571428571428</ele><time>2026-04-20T13:42:46.999Z</time></trkpt><trkpt lat="35.26785391882397" lon="-120.6551662730731"><ele>65.85714285714286</ele><time>2026-04-20T13:42:47.999Z</time></trkpt><trkpt lat="35.267798585371786" lon="-120.65511688613529"><ele>65.42857142857143</ele><time>2026-04-20T13:42:48.999Z</time></trkpt><trkpt lat="35.26773982731218" lon="-120.65506972552383"><ele>65.0</ele><time>2026-04-20T13:42:49.999Z</time></trkpt><trkpt lat="35.267682939296265" lon="-120.65502458563753"><ele>65.00000000000001</ele><time>2026-04-20T13:42:50.999Z</time></trkpt><trkpt lat="35.26762384573785" lon="-120.65497615359968"><ele>65.0</ele><time>2026-04-20T13:42:51.999Z</time></trkpt><trkpt lat="35.26756395034288" lon="-120.65492990391776"><ele>65.0</ele><time>2026-04-20T13:42:52.999Z</time></trkpt><trkpt lat="35.26750626328447" lon="-120.65488555214715"><ele>65.0</ele><time>2026-04-20T13:42:53.999Z</time></trkpt><trkpt lat="35.267446957045884" lon="-120.65483341710053"><ele>65.0</ele><time>2026-04-20T13:42:55Z</time></trkpt><trkpt lat="35.2673896376426" lon="-120.65477975526974"><ele>65.00000000000001</ele><time>2026-04-20T13:42:56Z</time></trkpt><trkpt lat="35.26733394218392" lon="-120.65473305203065"><ele>65.0</ele><time>2026-04-20T13:42:57Z</time></trkpt><trkpt lat="35.26727553582403" lon="-120.65468770643275"><ele>65.28571428571429</ele><time>2026-04-20T13:42:58Z</time></trkpt><trkpt lat="35.26721991005775" lon="-120.6546457755613"><ele>65.57142857142857</ele><time>2026-04-20T13:42:59Z</time></trkpt><trkpt lat="35.267163028791146" lon="-120.65460541159662"><ele>65.85714285714286</ele><time>2026-04-20T13:43:00Z</time></trkpt><trkpt lat="35.267106084269" lon="-120.65456658757044"><ele>66.14285714285714</ele><time>2026-04-20T13:43:01Z</time></trkpt><trkpt lat="35.26705185802516" lon="-120.65452346829433"><ele>66.42857142857143</ele><time>2026-04-20T13:43:02Z</time></trkpt><trkpt lat="35.266996554872726" lon="-120.65447935359356"><ele>66.71428571428572</ele><time>2026-04-20T13:43:03Z</time></trkpt><trkpt lat="35.26694194868675" lon="-120.65443522780724"><ele>67.0</ele><time>2026-04-20T13:43:04Z</time></trkpt><trkpt lat="35.26688630866868" lon="-120.65439227950247"><ele>67.28571428571429</ele><time>2026-04-20T13:43:05Z</time></trkpt><trkpt lat="35.266833067735305" lon="-120.65434176647202"><ele>67.57142857142857</ele><time>2026-04-20T13:43:06Z</time></trkpt><trkpt lat="35.266779055303964" lon="-120.6542962476906"><ele>67.85714285714286</ele><time>2026-04-20T13:43:07Z</time></trkpt><trkpt lat="35.26672284217984" lon="-120.65425079109508"><ele>68.14285714285714</ele><time>2026-04-20T13:43:08Z</time></trkpt><trkpt lat="35.266669228911304" lon="-120.65420643571655"><ele>68.42857142857143</ele><time>2026-04-20T13:43:09Z</time></trkpt><trkpt lat="35.26660955262416" lon="-120.65416755734391"><ele>68.71428571428572</ele><time>2026-04-20T13:43:10Z</time></trkpt><trkpt lat="35.26655152135077" lon="-120.65413029919445"><ele>69.0</ele><time>2026-04-20T13:43:11Z</time></trkpt><trkpt lat="35.26649194229217" lon="-120.65408781326377"><ele>69.33333333333333</ele><time>2026-04-20T13:43:12Z</time></trkpt><trkpt lat="35.266436266429196" lon="-120.6540457107283"><ele>69.66666666666667</ele><time>2026-04-20T13:43:13Z</time></trkpt><trkpt lat="35.26632997428941" lon="-120.65395991330695"><ele>70.0</ele><time>2026-04-20T13:43:15Z</time></trkpt><trkpt lat="35.266276401734224" lon="-120.65391704600464"><ele>70.33333333333334</ele><time>2026-04-20T13:43:16Z</time></trkpt><trkpt lat="35.266218851282964" lon="-120.65387826500945"><ele>70.66666666666667</ele><time>2026-04-20T13:43:17Z</time></trkpt><trkpt lat="35.26611466140257" lon="-120.65379467593657"><ele>71.0</ele><time>2026-04-20T13:43:19Z</time></trkpt><trkpt lat="35.26601021987392" lon="-120.65371130294348"><ele>71.0</ele><time>2026-04-20T13:43:21Z</time></trkpt><trkpt lat="35.26590722947272" lon="-120.65363255671748"><ele>71.0</ele><time>2026-04-20T13:43:23Z</time></trkpt><trkpt lat="35.26580819296901" lon="-120.65355412229918"><ele>71.0</ele><time>2026-04-20T13:43:25Z</time></trkpt><trkpt lat="35.26570759763637" lon="-120.65347756067595"><ele>71.0</ele><time>2026-04-20T13:43:27Z</time></trkpt><trkpt lat="35.26560694596507" lon="-120.65340283254672"><ele>71.75</ele><time>2026-04-20T13:43:29Z</time></trkpt><trkpt lat="35.26550910077681" lon="-120.65332095633279"><ele>72.5</ele><time>2026-04-20T13:43:31Z</time></trkpt><trkpt lat="35.26540977725054" lon="-120.65324353418062"><ele>73.25</ele><time>2026-04-20T13:43:33Z</time></trkpt><trkpt lat="35.26530944136162" lon="-120.65317114394053"><ele>74.0</ele><time>2026-04-20T13:43:35Z</time></trkpt><trkpt lat="35.2652111100022" lon="-120.65309888093954"><ele>74.0</ele><time>2026-04-20T13:43:37Z</time></trkpt><trkpt lat="35.26511278972461" lon="-120.65302022602799"><ele>74.0</ele><time>2026-04-20T13:43:39Z</time></trkpt><trkpt lat="35.265017690130584" lon="-120.65294118289441"><ele>74.0</ele><time>2026-04-20T13:43:41Z</time></trkpt><trkpt lat="35.26492277145537" lon="-120.65286309330396"><ele>74.0</ele><time>2026-04-20T13:43:43Z</time></trkpt><trkpt lat="35.264830946099636" lon="-120.65279054239645"><ele>75.4</ele><time>2026-04-20T13:43:45Z</time></trkpt><trkpt lat="35.264733204137144" lon="-120.65272149049379"><ele>76.80000000000001</ele><time>2026-04-20T13:43:47Z</time></trkpt><trkpt lat="35.26464022170363" lon="-120.65264415737866"><ele>78.19999999999999</ele><time>2026-04-20T13:43:49Z</time></trkpt><trkpt lat="35.26455749695789" lon="-120.65255013754252"><ele>79.6</ele><time>2026-04-20T13:43:51Z</time></trkpt><trkpt lat="35.26447090612037" lon="-120.65248082630671"><ele>81.0</ele><time>2026-04-20T13:43:53Z</time></trkpt><trkpt lat="35.26437912350567" lon="-120.65240735929451"><ele>81.0</ele><time>2026-04-20T13:43:55Z</time></trkpt><trkpt lat="35.26428291281807" lon="-120.65233568538092"><ele>81.0</ele><time>2026-04-20T13:43:57Z</time></trkpt><trkpt lat="35.264192413757684" lon="-120.65226790007046"><ele>81.0</ele><time>2026-04-20T13:43:59Z</time></trkpt><trkpt lat="35.26409538441962" lon="-120.65221567957904"><ele>81.0</ele><time>2026-04-20T13:44:01Z</time></trkpt><trkpt lat="35.264007970714005" lon="-120.65214591429793"><ele>81.0</ele><time>2026-04-20T13:44:03Z</time></trkpt><trkpt lat="35.26392520463802" lon="-120.65207323019497"><ele>81.4</ele><time>2026-04-20T13:44:05Z</time></trkpt><trkpt lat="35.263838182441354" lon="-120.65201493675272"><ele>81.8</ele><time>2026-04-20T13:44:07Z</time></trkpt><trkpt lat="35.2637506753862" lon="-120.65195197356121"><ele>82.2</ele><time>2026-04-20T13:44:09Z</time></trkpt><trkpt lat="35.26365093551632" lon="-120.65200108649313"><ele>82.60000000000001</ele><time>2026-04-20T13:44:11Z</time></trkpt><trkpt lat="35.263599471685986" lon="-120.65209218157268"><ele>83.0</ele><time>2026-04-20T13:44:13Z</time></trkpt><trkpt lat="35.26356066020652" lon="-120.65216949701447"><ele>83.0</ele><time>2026-04-20T13:44:15Z</time></trkpt><trkpt lat="35.263529271289784" lon="-120.65224316244844"><ele>83.0</ele><time>2026-04-20T13:44:16.999Z</time></trkpt><trkpt lat="35.263485346333184" lon="-120.65233722453655"><ele>83.0</ele><time>2026-04-20T13:44:19.999Z</time></trkpt><trkpt lat="35.263440053441606" lon="-120.65239247701605"><ele>83.0</ele><time>2026-04-20T13:44:21.999Z</time></trkpt><trkpt lat="35.26340474864477" lon="-120.65248089029267"><ele>83.0</ele><time>2026-04-20T13:44:24.999Z</time></trkpt><trkpt lat="35.263371289396254" lon="-120.65258218802857"><ele>83.0</ele><time>2026-04-20T13:44:27.999Z</time></trkpt><trkpt lat="35.263344223048925" lon="-120.65269087651436"><ele>83.0</ele><time>2026-04-20T13:44:30.999Z</time></trkpt><trkpt lat="35.26332564224988" lon="-120.65277214978049"><ele>83.0</ele><time>2026-04-20T13:44:32.999Z</time></trkpt><trkpt lat="35.26331607190425" lon="-120.65286614645056"><ele>83.0</ele><time>2026-04-20T13:44:34.999Z</time></trkpt><trkpt lat="35.26331135811272" lon="-120.65296245539717"><ele>83.0</ele><time>2026-04-20T13:44:36.999Z</time></trkpt><trkpt lat="35.26330579205841" lon="-120.65306035584568"><ele>83.0</ele><time>2026-04-20T13:44:38.999Z</time></trkpt><trkpt lat="35.26329567717642" lon="-120.65315636802289"><ele>83.0</ele><time>2026-04-20T13:44:40.999Z</time></trkpt><trkpt lat="35.26329952638947" lon="-120.65325639962856"><ele>83.16666666666667</ele><time>2026-04-20T13:44:42.999Z</time></trkpt><trkpt lat="35.26329985590846" lon="-120.65335835064099"><ele>83.33333333333334</ele><time>2026-04-20T13:44:44.999Z</time></trkpt><trkpt lat="35.26328356481334" lon="-120.65345299526916"><ele>83.5</ele><time>2026-04-20T13:44:46.999Z</time></trkpt><trkpt lat="35.2632416357442" lon="-120.6535299903696"><ele>83.66666666666667</ele><time>2026-04-20T13:44:48.999Z</time></trkpt><trkpt lat="35.26318105529606" lon="-120.65359504148341"><ele>83.83333333333333</ele><time>2026-04-20T13:44:50.999Z</time></trkpt><trkpt lat="35.2631111235579" lon="-120.65362991075303"><ele>84.0</ele><time>2026-04-20T13:44:52.999Z</time></trkpt><trkpt lat="35.26303470767778" lon="-120.65367296188661"><ele>84.42857142857143</ele><time>2026-04-20T13:44:54.999Z</time></trkpt><trkpt lat="35.26297711779976" lon="-120.65374852431111"><ele>84.85714285714286</ele><time>2026-04-20T13:44:56.999Z</time></trkpt><trkpt lat="35.26295398668339" lon="-120.65383523654343"><ele>85.28571428571428</ele><time>2026-04-20T13:44:58.999Z</time></trkpt><trkpt lat="35.262925594216895" lon="-120.65391698664207"><ele>85.71428571428572</ele><time>2026-04-20T13:45:01Z</time></trkpt><trkpt lat="35.26289602126743" lon="-120.65399369475222"><ele>86.14285714285714</ele><time>2026-04-20T13:45:03Z</time></trkpt><trkpt lat="35.26286159440914" lon="-120.65406416117075"><ele>86.57142857142857</ele><time>2026-04-20T13:45:05Z</time></trkpt><trkpt lat="35.262817204671165" lon="-120.6541333374289"><ele>87.0</ele><time>2026-04-20T13:45:07Z</time></trkpt><trkpt lat="35.26276207902844" lon="-120.65422220950347"><ele>87.0</ele><time>2026-04-20T13:45:10Z</time></trkpt><trkpt lat="35.262715597904524" lon="-120.6543150604562"><ele>87.0</ele><time>2026-04-20T13:45:13Z</time></trkpt><trkpt lat="35.2626705598072" lon="-120.65439205883648"><ele>87.0</ele><time>2026-04-20T13:45:16Z</time></trkpt><trkpt lat="35.262630511714946" lon="-120.654467056459"><ele>87.0</ele><time>2026-04-20T13:45:21Z</time></trkpt><trkpt lat="35.262581692761806" lon="-120.65452098274065"><ele>87.0</ele><time>2026-04-20T13:45:26Z</time></trkpt><trkpt lat="35.26255125478118" lon="-120.65459676488028"><ele>87.0</ele><time>2026-04-20T13:45:30Z</time></trkpt><trkpt lat="35.26250162914388" lon="-120.6546709907795"><ele>87.71428571428571</ele><time>2026-04-20T13:45:34Z</time></trkpt><trkpt lat="35.262451270304204" lon="-120.65473320088313"><ele>88.42857142857143</ele><time>2026-04-20T13:45:37Z</time></trkpt><trkpt lat="35.26239827545707" lon="-120.65482287500257"><ele>89.14285714285714</ele><time>2026-04-20T13:45:42Z</time></trkpt><trkpt lat="35.26235027725367" lon="-120.65489646496712"><ele>89.85714285714286</ele><time>2026-04-20T13:45:45Z</time></trkpt><trkpt lat="35.262306355907064" lon="-120.65497480453153"><ele>90.57142857142857</ele><time>2026-04-20T13:45:48Z</time></trkpt><trkpt lat="35.26226745496775" lon="-120.6550368797477"><ele>91.28571428571429</ele><time>2026-04-20T13:45:50Z</time></trkpt><trkpt lat="35.262224303039574" lon="-120.65509864013251"><ele>92.0</ele><time>2026-04-20T13:45:52Z</time></trkpt><trkpt lat="35.26218753590162" lon="-120.65516389897732"><ele>93.33333333333334</ele><time>2026-04-20T13:45:54Z</time></trkpt><trkpt lat="35.262143853241774" lon="-120.65523027977044"><ele>94.66666666666667</ele><time>2026-04-20T13:45:56Z</time></trkpt><trkpt lat="35.262101204276256" lon="-120.65529035954309"><ele>96.0</ele><time>2026-04-20T13:45:58Z</time></trkpt><trkpt lat="35.262066114618754" lon="-120.65539200339177"><ele>97.33333333333334</ele><time>2026-04-20T13:46:01Z</time></trkpt><trkpt lat="35.26205490177085" lon="-120.65548712591739"><ele>98.66666666666667</ele><time>2026-04-20T13:46:04Z</time></trkpt><trkpt lat="35.26200813163565" lon="-120.6555749938568"><ele>100.0</ele><time>2026-04-20T13:46:08Z</time></trkpt><trkpt lat="35.26194497438919" lon="-120.65562538836456"><ele>101.00000000000001</ele><time>2026-04-20T13:46:10Z</time></trkpt><trkpt lat="35.26188533380931" lon="-120.6556674700016"><ele>102.0</ele><time>2026-04-20T13:46:13Z</time></trkpt><trkpt lat="35.26181182395109" lon="-120.65571319100907"><ele>103.0</ele><time>2026-04-20T13:46:16Z</time></trkpt><trkpt lat="35.26174427679539" lon="-120.65576754931864"><ele>104.0</ele><time>2026-04-20T13:46:20Z</time></trkpt><trkpt lat="35.261684836511364" lon="-120.65580957277604"><ele>105.0</ele><time>2026-04-20T13:46:23Z</time></trkpt><trkpt lat="35.2616187817019" lon="-120.6558304301531"><ele>106.00000000000001</ele><time>2026-04-20T13:46:31.999Z</time></trkpt><trkpt lat="35.26154928155956" lon="-120.65581140189138"><ele>107.0</ele><time>2026-04-20T13:46:47.999Z</time></trkpt><trkpt lat="35.26148583582125" lon="-120.65580674421243"><ele>109.83333333333333</ele><time>2026-04-20T13:46:52.999Z</time></trkpt><trkpt lat="35.261411312215046" lon="-120.65579227951446"><ele>112.66666666666666</ele><time>2026-04-20T13:46:58.999Z</time></trkpt><trkpt lat="35.261346334299056" lon="-120.65574606911257"><ele>115.5</ele><time>2026-04-20T13:47:04.999Z</time></trkpt><trkpt lat="35.261289284352806" lon="-120.65569604741633"><ele>118.33333333333334</ele><time>2026-04-20T13:47:10Z</time></trkpt><trkpt lat="35.26125050904447" lon="-120.65562718835328"><ele>121.16666666666667</ele><time>2026-04-20T13:47:18Z</time></trkpt><trkpt lat="35.26118597339352" lon="-120.6555972931577"><ele>124.0</ele><time>2026-04-20T13:47:21Z</time></trkpt><trkpt lat="35.26110489861573" lon="-120.65553816053172"><ele>124.00000000000001</ele><time>2026-04-20T13:47:24Z</time></trkpt><trkpt lat="35.26102709639351" lon="-120.65547930160835"><ele>124.0</ele><time>2026-04-20T13:47:27Z</time></trkpt><trkpt lat="35.2609646190715" lon="-120.6554392563387"><ele>124.0</ele><time>2026-04-20T13:47:29Z</time></trkpt><trkpt lat="35.26090222828562" lon="-120.65539468349108"><ele>124.0</ele><time>2026-04-20T13:47:31Z</time></trkpt><trkpt lat="35.26080530252261" lon="-120.65533703308346"><ele>124.00000000000001</ele><time>2026-04-20T13:47:34Z</time></trkpt><trkpt lat="35.260743562319334" lon="-120.65529123102615"><ele>124.0</ele><time>2026-04-20T13:47:36Z</time></trkpt><trkpt lat="35.26068249983798" lon="-120.65524495000501"><ele>123.57142857142858</ele><time>2026-04-20T13:47:38Z</time></trkpt><trkpt lat="35.260623554284045" lon="-120.6551942070082"><ele>123.14285714285715</ele><time>2026-04-20T13:47:40Z</time></trkpt><trkpt lat="35.260565208753974" lon="-120.65515734240428"><ele>122.71428571428572</ele><time>2026-04-20T13:47:42Z</time></trkpt><trkpt lat="35.26048393967977" lon="-120.65511113924003"><ele>122.28571428571428</ele><time>2026-04-20T13:47:45Z</time></trkpt><trkpt lat="35.26042568936011" lon="-120.65508056137979"><ele>121.85714285714285</ele><time>2026-04-20T13:47:47Z</time></trkpt><trkpt lat="35.26035388897115" lon="-120.65504490825573"><ele>121.42857142857142</ele><time>2026-04-20T13:47:50Z</time></trkpt><trkpt lat="35.260292367009576" lon="-120.65501008446061"><ele>121.0</ele><time>2026-04-20T13:47:53Z</time></trkpt><trkpt lat="35.26022622292943" lon="-120.65497974087695"><ele>121.00000000000001</ele><time>2026-04-20T13:47:56Z</time></trkpt><trkpt lat="35.26016270982819" lon="-120.65495624469348"><ele>121.0</ele><time>2026-04-20T13:47:58Z</time></trkpt><trkpt lat="35.260096387727565" lon="-120.65493065894839"><ele>121.0</ele><time>2026-04-20T13:48:01Z</time></trkpt><trkpt lat="35.26001146376082" lon="-120.65489930642492"><ele>121.0</ele><time>2026-04-20T13:48:04Z</time></trkpt><trkpt lat="35.25993090193609" lon="-120.65487207458304"><ele>121.00000000000001</ele><time>2026-04-20T13:48:06Z</time></trkpt><trkpt lat="35.2598404429112" lon="-120.65483752676272"><ele>121.0</ele><time>2026-04-20T13:48:09Z</time></trkpt><trkpt lat="35.25976692258646" lon="-120.65487264258681"><ele>121.57142857142857</ele><time>2026-04-20T13:48:13Z</time></trkpt><trkpt lat="35.25973842841468" lon="-120.6549424638987"><ele>122.14285714285714</ele><time>2026-04-20T13:48:17Z</time></trkpt><trkpt lat="35.25969186122761" lon="-120.65501165555187"><ele>122.71428571428571</ele><time>2026-04-20T13:48:23Z</time></trkpt><trkpt lat="35.25962673428222" lon="-120.65498676071869"><ele>123.28571428571428</ele><time>2026-04-20T13:48:27Z</time></trkpt><trkpt lat="35.259555101702944" lon="-120.6549810521716"><ele>123.85714285714286</ele><time>2026-04-20T13:48:31Z</time></trkpt><trkpt lat="35.259488411577685" lon="-120.65497699409632"><ele>124.42857142857142</ele><time>2026-04-20T13:48:42.999Z</time></trkpt><trkpt lat="35.25941432107822" lon="-120.6549551751695"><ele>125.0</ele><time>2026-04-20T13:48:53.999Z</time></trkpt><trkpt lat="35.25934780628627" lon="-120.65496043453624"><ele>125.0</ele><time>2026-04-20T13:48:57.999Z</time></trkpt><trkpt lat="35.259270748538235" lon="-120.65496388748667"><ele>125.0</ele><time>2026-04-20T13:49:01.999Z</time></trkpt><trkpt lat="35.2592072194045" lon="-120.65495425092745"><ele>125.0</ele><time>2026-04-20T13:49:04.999Z</time></trkpt><trkpt lat="35.25912437679883" lon="-120.65495849587121"><ele>125.0</ele><time>2026-04-20T13:49:07.999Z</time></trkpt><trkpt lat="35.25904636818852" lon="-120.65497547198122"><ele>125.0</ele><time>2026-04-20T13:49:11.999Z</time></trkpt><trkpt lat="35.25897859275716" lon="-120.65498416300332"><ele>125.0</ele><time>2026-04-20T13:49:17Z</time></trkpt><trkpt lat="35.2589035229271" lon="-120.65499294294015"><ele>125.0</ele><time>2026-04-20T13:49:26Z</time></trkpt><trkpt lat="35.25882253907966" lon="-120.6549878478327"><ele>122.2</ele><time>2026-04-20T13:49:30Z</time></trkpt><trkpt lat="35.2587257935634" lon="-120.65499472837982"><ele>119.4</ele><time>2026-04-20T13:49:32Z</time></trkpt><trkpt lat="35.25865429105936" lon="-120.65501682456915"><ele>116.6</ele><time>2026-04-20T13:49:34Z</time></trkpt><trkpt lat="35.25856155001096" lon="-120.6550590268875"><ele>113.8</ele><time>2026-04-20T13:49:36Z</time></trkpt><trkpt lat="35.25846934723813" lon="-120.65510720622703"><ele>111.0</ele><time>2026-04-20T13:49:38Z</time></trkpt><trkpt lat="35.25838026156789" lon="-120.65515652992009"><ele>111.0</ele><time>2026-04-20T13:49:40Z</time></trkpt><trkpt lat="35.25832241461535" lon="-120.65518970986577"><ele>111.0</ele><time>2026-04-20T13:49:42Z</time></trkpt><trkpt lat="35.25825341640097" lon="-120.65523027105361"><ele>111.0</ele><time>2026-04-20T13:49:45Z</time></trkpt><trkpt lat="35.25819315757313" lon="-120.65528226823737"><ele>111.0</ele><time>2026-04-20T13:49:49Z</time></trkpt><trkpt lat="35.25813392740296" lon="-120.6553191635373"><ele>111.0</ele><time>2026-04-20T13:49:52Z</time></trkpt><trkpt lat="35.258058381308295" lon="-120.65535849825731"><ele>111.0</ele><time>2026-04-20T13:49:57Z</time></trkpt><trkpt lat="35.25801289005939" lon="-120.65543108599311"><ele>111.0</ele><time>2026-04-20T13:50:01Z</time></trkpt><trkpt lat="35.25795441764497" lon="-120.65548454610405"><ele>108.0</ele><time>2026-04-20T13:50:04Z</time></trkpt><trkpt lat="35.25791922423668" lon="-120.65555895332938"><ele>105.0</ele><time>2026-04-20T13:50:07Z</time></trkpt><trkpt lat="35.25788881128972" lon="-120.65564358505509"><ele>102.0</ele><time>2026-04-20T13:50:11Z</time></trkpt><trkpt lat="35.257864387128414" lon="-120.65573614983991"><ele>99.0</ele><time>2026-04-20T13:50:14Z</time></trkpt><trkpt lat="35.25783934245993" lon="-120.655814471367"><ele>96.0</ele><time>2026-04-20T13:50:17Z</time></trkpt><trkpt lat="35.25781141923029" lon="-120.6558948153713"><ele>93.0</ele><time>2026-04-20T13:50:20Z</time></trkpt><trkpt lat="35.257808901578585" lon="-120.65597208232022"><ele>90.0</ele><time>2026-04-20T13:50:32Z</time></trkpt><trkpt lat="35.257790460196745" lon="-120.6560600338241"><ele>89.16666666666667</ele><time>2026-04-20T13:50:35Z</time></trkpt><trkpt lat="35.25778722818033" lon="-120.6561693757937"><ele>88.33333333333333</ele><time>2026-04-20T13:50:38Z</time></trkpt><trkpt lat="35.257772474728526" lon="-120.65625641101947"><ele>87.5</ele><time>2026-04-20T13:50:41Z</time></trkpt><trkpt lat="35.257764932650495" lon="-120.65634776315711"><ele>86.66666666666666</ele><time>2026-04-20T13:50:44.999Z</time></trkpt><trkpt lat="35.25776199975324" lon="-120.65644255681055"><ele>85.83333333333333</ele><time>2026-04-20T13:50:47.999Z</time></trkpt><trkpt lat="35.25775384352666" lon="-120.65654637316047"><ele>85.0</ele><time>2026-04-20T13:50:50.999Z</time></trkpt><trkpt lat="35.257780091139" lon="-120.65667997230325"><ele>85.0</ele><time>2026-04-20T13:50:51.999Z</time></trkpt><trkpt lat="35.25779946347382" lon="-120.6567801710446"><ele>85.0</ele><time>2026-04-20T13:50:53.999Z</time></trkpt><trkpt lat="35.25780686631275" lon="-120.65689607854216"><ele>85.0</ele><time>2026-04-20T13:50:55.999Z</time></trkpt><trkpt lat="35.25781593143534" lon="-120.65703027338866"><ele>85.0</ele><time>2026-04-20T13:50:57.999Z</time></trkpt><trkpt lat="35.25784276253297" lon="-120.65716411570732"><ele>85.0</ele><time>2026-04-20T13:50:59.999Z</time></trkpt><trkpt lat="35.25786370782842" lon="-120.65723771960056"><ele>86.42857142857143</ele><time>2026-04-20T13:51:00.999Z</time></trkpt><trkpt lat="35.25789155220979" lon="-120.65733193900982"><ele>87.85714285714285</ele><time>2026-04-20T13:51:01.999Z</time></trkpt><trkpt lat="35.25791814931714" lon="-120.6574122010304"><ele>89.28571428571428</ele><time>2026-04-20T13:51:02.999Z</time></trkpt><trkpt lat="35.257950118414186" lon="-120.65748186647491"><ele>90.71428571428572</ele><time>2026-04-20T13:51:03.999Z</time></trkpt><trkpt lat="35.25799730680789" lon="-120.65755301043684"><ele>92.14285714285714</ele><time>2026-04-20T13:51:04.999Z</time></trkpt><trkpt lat="35.25804187000435" lon="-120.65762836621444"><ele>93.57142857142857</ele><time>2026-04-20T13:51:05.999Z</time></trkpt><trkpt lat="35.25808800001848" lon="-120.65769470819912"><ele>95.0</ele><time>2026-04-20T13:51:06.999Z</time></trkpt><trkpt lat="35.258135929411715" lon="-120.65776856320055"><ele>92.85714285714286</ele><time>2026-04-20T13:51:07.999Z</time></trkpt><trkpt lat="35.25817443533465" lon="-120.65784308241214"><ele>90.71428571428572</ele><time>2026-04-20T13:51:08.999Z</time></trkpt><trkpt lat="35.2582032158481" lon="-120.65792244202879"><ele>88.57142857142857</ele><time>2026-04-20T13:51:09.999Z</time></trkpt><trkpt lat="35.25822422884226" lon="-120.65800588438329"><ele>86.42857142857143</ele><time>2026-04-20T13:51:10.999Z</time></trkpt><trkpt lat="35.25824967286198" lon="-120.65809116242407"><ele>84.28571428571429</ele><time>2026-04-20T13:51:11.999Z</time></trkpt><trkpt lat="35.258246357126566" lon="-120.65817338762105"><ele>82.14285714285714</ele><time>2026-04-20T13:51:12.999Z</time></trkpt><trkpt lat="35.258258346160325" lon="-120.6582630825822"><ele>80.0</ele><time>2026-04-20T13:51:13.999Z</time></trkpt><trkpt lat="35.258238129529325" lon="-120.65840400732988"><ele>80.0</ele><time>2026-04-20T13:51:15.999Z</time></trkpt><trkpt lat="35.25826045302912" lon="-120.65848091670699"><ele>80.0</ele><time>2026-04-20T13:51:16.999Z</time></trkpt><trkpt lat="35.25828520943312" lon="-120.65856380533876"><ele>80.0</ele><time>2026-04-20T13:51:17.999Z</time></trkpt><trkpt lat="35.25830720847422" lon="-120.6586474886226"><ele>80.0</ele><time>2026-04-20T13:51:19Z</time></trkpt><trkpt lat="35.2583291160392" lon="-120.65872843195653"><ele>80.0</ele><time>2026-04-20T13:51:20Z</time></trkpt><trkpt lat="35.2583622641614" lon="-120.65880642137789"><ele>80.0</ele><time>2026-04-20T13:51:21Z</time></trkpt><trkpt lat="35.25840162140694" lon="-120.65889026205191"><ele>80.0</ele><time>2026-04-20T13:51:22Z</time></trkpt><trkpt lat="35.258457762319054" lon="-120.6589650641725"><ele>78.57142857142857</ele><time>2026-04-20T13:51:23Z</time></trkpt><trkpt lat="35.25850900013722" lon="-120.6590247470632"><ele>77.14285714285714</ele><time>2026-04-20T13:51:24Z</time></trkpt><trkpt lat="35.25855577498208" lon="-120.65908528768516"><ele>75.71428571428572</ele><time>2026-04-20T13:51:25Z</time></trkpt><trkpt lat="35.25859739627595" lon="-120.65914802342108"><ele>74.28571428571428</ele><time>2026-04-20T13:51:26Z</time></trkpt><trkpt lat="35.25863973176037" lon="-120.65922065169796"><ele>72.85714285714286</ele><time>2026-04-20T13:51:27Z</time></trkpt><trkpt lat="35.25868200406043" lon="-120.65929569654996"><ele>71.42857142857143</ele><time>2026-04-20T13:51:28Z</time></trkpt><trkpt lat="35.25872474386677" lon="-120.65937091868811"><ele>70.0</ele><time>2026-04-20T13:51:29Z</time></trkpt><trkpt lat="35.258764628704576" lon="-120.65944872675585"><ele>70.33333333333333</ele><time>2026-04-20T13:51:30Z</time></trkpt><trkpt lat="35.25880352574889" lon="-120.65952714445808"><ele>70.66666666666666</ele><time>2026-04-20T13:51:31Z</time></trkpt><trkpt lat="35.258851245725474" lon="-120.65961335700945"><ele>71.0</ele><time>2026-04-20T13:51:32Z</time></trkpt><trkpt lat="35.25890274229776" lon="-120.65970159047502"><ele>71.33333333333333</ele><time>2026-04-20T13:51:33Z</time></trkpt><trkpt lat="35.25895434073014" lon="-120.65978133557452"><ele>71.66666666666667</ele><time>2026-04-20T13:51:34Z</time></trkpt><trkpt lat="35.25900577019314" lon="-120.65985646672273"><ele>72.0</ele><time>2026-04-20T13:51:35Z</time></trkpt><trkpt lat="35.259057998546574" lon="-120.65991761862058"><ele>72.00000000000001</ele><time>2026-04-20T13:51:36Z</time></trkpt><trkpt lat="35.25910442161453" lon="-120.65998203034222"><ele>72.0</ele><time>2026-04-20T13:51:37Z</time></trkpt><trkpt lat="35.259157864684845" lon="-120.6600272675113"><ele>72.0</ele><time>2026-04-20T13:51:38Z</time></trkpt><trkpt lat="35.25922976389594" lon="-120.66009560780148"><ele>72.0</ele><time>2026-04-20T13:51:40Z</time></trkpt><trkpt lat="35.25927810032203" lon="-120.66015099927137"><ele>72.0</ele><time>2026-04-20T13:51:43Z</time></trkpt><trkpt lat="35.259325082426116" lon="-120.66023086292152"><ele>72.00000000000001</ele><time>2026-04-20T13:51:47Z</time></trkpt><trkpt lat="35.259343474000204" lon="-120.66030905928994"><ele>72.0</ele><time>2026-04-20T13:51:50Z</time></trkpt><trkpt lat="35.25925557887109" lon="-120.66032940344328"><ele>70.5</ele><time>2026-04-20T13:51:53Z</time></trkpt><trkpt lat="35.2591811496417" lon="-120.66034911486327"><ele>69.0</ele><time>2026-04-20T13:51:56Z</time></trkpt><trkpt lat="35.25915170045315" lon="-120.660429942283"><ele>67.5</ele><time>2026-04-20T13:51:58Z</time></trkpt><trkpt lat="35.259134703682015" lon="-120.66051740333386"><ele>66.0</ele><time>2026-04-20T13:52:00Z</time></trkpt><trkpt lat="35.25907550436855" lon="-120.66059436955038"><ele>64.5</ele><time>2026-04-20T13:52:11Z</time></trkpt><trkpt lat="35.258996610955926" lon="-120.66056264714243"><ele>63.0</ele><time>2026-04-20T13:52:13Z</time></trkpt><trkpt lat="35.25892166283435" lon="-120.66051725145756"><ele>62.4</ele><time>2026-04-20T13:52:15Z</time></trkpt><trkpt lat="35.258839876982336" lon="-120.66045027012603"><ele>61.8</ele><time>2026-04-20T13:52:17Z</time></trkpt><trkpt lat="35.25876570092259" lon="-120.66035817054046"><ele>61.2</ele><time>2026-04-20T13:52:19Z</time></trkpt><trkpt lat="35.258683995138554" lon="-120.66026152147292"><ele>60.6</ele><time>2026-04-20T13:52:21Z</time></trkpt><trkpt lat="35.258604182059656" lon="-120.66015661899958"><ele>60.0</ele><time>2026-04-20T13:52:23Z</time></trkpt><trkpt lat="35.25854075285577" lon="-120.66004725531265"><ele>60.0</ele><time>2026-04-20T13:52:25Z</time></trkpt><trkpt lat="35.25850207340081" lon="-120.65992434028162"><ele>60.0</ele><time>2026-04-20T13:52:27Z</time></trkpt><trkpt lat="35.25841732272478" lon="-120.6598504341267"><ele>60.0</ele><time>2026-04-20T13:52:29Z</time></trkpt><trkpt lat="35.258308819188215" lon="-120.65990525033266"><ele>60.0</ele><time>2026-04-20T13:52:31Z</time></trkpt><trkpt lat="35.258232131434724" lon="-120.66001739663109"><ele>60.0</ele><time>2026-04-20T13:52:33Z</time></trkpt><trkpt lat="35.258146633549586" lon="-120.66012678094506"><ele>59.333333333333336</ele><time>2026-04-20T13:52:35Z</time></trkpt><trkpt lat="35.258107145820986" lon="-120.66020935771186"><ele>58.66666666666667</ele><time>2026-04-20T13:52:36Z</time></trkpt><trkpt lat="35.25808448466456" lon="-120.66030765017689"><ele>58.0</ele><time>2026-04-20T13:52:37Z</time></trkpt><trkpt lat="35.25807795738657" lon="-120.66041667644973"><ele>57.333333333333336</ele><time>2026-04-20T13:52:38Z</time></trkpt><trkpt lat="35.258073839443476" lon="-120.66052998092907"><ele>56.66666666666667</ele><time>2026-04-20T13:52:39Z</time></trkpt><trkpt lat="35.258069717388" lon="-120.66064321405655"><ele>56.0</ele><time>2026-04-20T13:52:40Z</time></trkpt><trkpt lat="35.25806569899939" lon="-120.660759499173"><ele>55.16666666666667</ele><time>2026-04-20T13:52:41Z</time></trkpt><trkpt lat="35.25806187243355" lon="-120.66087178136772"><ele>54.333333333333336</ele><time>2026-04-20T13:52:42Z</time></trkpt><trkpt lat="35.25806041815513" lon="-120.66098351316043"><ele>53.5</ele><time>2026-04-20T13:52:43Z</time></trkpt><trkpt lat="35.25806355957348" lon="-120.66109182188185"><ele>52.66666666666667</ele><time>2026-04-20T13:52:44Z</time></trkpt><trkpt lat="35.25806442845618" lon="-120.66119657672061"><ele>51.833333333333336</ele><time>2026-04-20T13:52:45Z</time></trkpt><trkpt lat="35.25806950005441" lon="-120.66130121406968"><ele>51.0</ele><time>2026-04-20T13:52:46Z</time></trkpt><trkpt lat="35.25808098251263" lon="-120.66140817681183"><ele>50.333333333333336</ele><time>2026-04-20T13:52:47Z</time></trkpt><trkpt lat="35.258088749206216" lon="-120.6615115486311"><ele>49.666666666666664</ele><time>2026-04-20T13:52:48Z</time></trkpt><trkpt lat="35.25809666620564" lon="-120.6616120282742"><ele>49.0</ele><time>2026-04-20T13:52:49Z</time></trkpt><trkpt lat="35.2580941772052" lon="-120.66169844144595"><ele>48.33333333333333</ele><time>2026-04-20T13:52:50Z</time></trkpt><trkpt lat="35.258066043590965" lon="-120.66178502759603"><ele>47.666666666666664</ele><time>2026-04-20T13:52:52Z</time></trkpt><trkpt lat="35.25798718907813" lon="-120.66181563656487"><ele>47.0</ele><time>2026-04-20T13:52:54Z</time></trkpt><trkpt lat="35.257943928905995" lon="-120.66189434573549"><ele>47.0</ele><time>2026-04-20T13:52:56.999Z</time></trkpt><trkpt lat="35.25785364987327" lon="-120.66189777871375"><ele>47.0</ele><time>2026-04-20T13:52:58.999Z</time></trkpt><trkpt lat="35.25772547113615" lon="-120.6619157873753"><ele>47.0</ele><time>2026-04-20T13:53:00.999Z</time></trkpt><trkpt lat="35.25765521478407" lon="-120.66192101261817"><ele>47.0</ele><time>2026-04-20T13:53:01.999Z</time></trkpt><trkpt lat="35.25758471372912" lon="-120.66192747677495"><ele>47.0</ele><time>2026-04-20T13:53:02.999Z</time></trkpt><trkpt lat="35.257515134513376" lon="-120.66192773354452"><ele>47.0</ele><time>2026-04-20T13:53:03.999Z</time></trkpt><trkpt lat="35.257440343161086" lon="-120.66191674287057"><ele>47.0</ele><time>2026-04-20T13:53:04.999Z</time></trkpt><trkpt lat="35.257362860565586" lon="-120.66191711468795"><ele>47.0</ele><time>2026-04-20T13:53:05.999Z</time></trkpt><trkpt lat="35.257284110338695" lon="-120.66190994381967"><ele>47.0</ele><time>2026-04-20T13:53:06.999Z</time></trkpt><trkpt lat="35.25720352968716" lon="-120.6619086397209"><ele>47.0</ele><time>2026-04-20T13:53:07.999Z</time></trkpt><trkpt lat="35.25712414881953" lon="-120.66191117819908"><ele>47.0</ele><time>2026-04-20T13:53:08.999Z</time></trkpt><trkpt lat="35.257048727145886" lon="-120.66191455524702"><ele>47.0</ele><time>2026-04-20T13:53:09.999Z</time></trkpt><trkpt lat="35.25697008550372" lon="-120.66191154851846"><ele>47.0</ele><time>2026-04-20T13:53:10.999Z</time></trkpt><trkpt lat="35.25689322150659" lon="-120.66190990593275"><ele>47.0</ele><time>2026-04-20T13:53:11.999Z</time></trkpt><trkpt lat="35.25681693274658" lon="-120.66190928223178"><ele>47.0</ele><time>2026-04-20T13:53:12.999Z</time></trkpt><trkpt lat="35.25674080211982" lon="-120.66190857769587"><ele>47.0</ele><time>2026-04-20T13:53:13.999Z</time></trkpt><trkpt lat="35.25666581602085" lon="-120.66191211036899"><ele>47.0</ele><time>2026-04-20T13:53:14.999Z</time></trkpt><trkpt lat="35.25659219485619" lon="-120.66192295364331"><ele>47.0</ele><time>2026-04-20T13:53:15.999Z</time></trkpt><trkpt lat="35.256521837615736" lon="-120.66194104689501"><ele>46.8</ele><time>2026-04-20T13:53:16.999Z</time></trkpt><trkpt lat="35.25645396945826" lon="-120.66195772901816"><ele>46.6</ele><time>2026-04-20T13:53:17.999Z</time></trkpt><trkpt lat="35.256387987073424" lon="-120.66197649735001"><ele>46.4</ele><time>2026-04-20T13:53:18.999Z</time></trkpt><trkpt lat="35.2562938452247" lon="-120.66203574632429"><ele>46.199999999999996</ele><time>2026-04-20T13:53:20.999Z</time></trkpt><trkpt lat="35.2562707016156" lon="-120.66215999183204"><ele>46.0</ele><time>2026-04-20T13:53:22.999Z</time></trkpt><trkpt lat="35.25629998823184" lon="-120.66229983340835"><ele>45.66666666666667</ele><time>2026-04-20T13:53:25Z</time></trkpt><trkpt lat="35.256331629634495" lon="-120.6624520030242"><ele>45.333333333333336</ele><time>2026-04-20T13:53:27Z</time></trkpt><trkpt lat="35.256338964396" lon="-120.66253771501407"><ele>45.0</ele><time>2026-04-20T13:53:28Z</time></trkpt><trkpt lat="35.256348426845506" lon="-120.66262141474495"><ele>44.666666666666664</ele><time>2026-04-20T13:53:29Z</time></trkpt><trkpt lat="35.25635803567446" lon="-120.66271671363403"><ele>44.33333333333333</ele><time>2026-04-20T13:53:30Z</time></trkpt><trkpt lat="35.25637636037506" lon="-120.66279713258686"><ele>44.0</ele><time>2026-04-20T13:53:31Z</time></trkpt><trkpt lat="35.256384130752096" lon="-120.66288732800523"><ele>44.0</ele><time>2026-04-20T13:53:32Z</time></trkpt><trkpt lat="35.25639982384538" lon="-120.66297810174886"><ele>44.0</ele><time>2026-04-20T13:53:33Z</time></trkpt><trkpt lat="35.25638404604322" lon="-120.66307270368723"><ele>44.0</ele><time>2026-04-20T13:53:34Z</time></trkpt><trkpt lat="35.25639537021531" lon="-120.66315954254847"><ele>44.0</ele><time>2026-04-20T13:53:35Z</time></trkpt><trkpt lat="35.25640707033499" lon="-120.66324926438723"><ele>44.0</ele><time>2026-04-20T13:53:36Z</time></trkpt><trkpt lat="35.25643337849493" lon="-120.6633331297213"><ele>44.0</ele><time>2026-04-20T13:53:37Z</time></trkpt><trkpt lat="35.256440996455595" lon="-120.66341859391328"><ele>44.0</ele><time>2026-04-20T13:53:38Z</time></trkpt><trkpt lat="35.25644869813724" lon="-120.6635023010222"><ele>44.166666666666664</ele><time>2026-04-20T13:53:39Z</time></trkpt><trkpt lat="35.25645875262828" lon="-120.66358271179165"><ele>44.33333333333333</ele><time>2026-04-20T13:53:40Z</time></trkpt><trkpt lat="35.25647124755173" lon="-120.66366566593443"><ele>44.5</ele><time>2026-04-20T13:53:41Z</time></trkpt><trkpt lat="35.25648146105738" lon="-120.66374232505812"><ele>44.666666666666664</ele><time>2026-04-20T13:53:42Z</time></trkpt><trkpt lat="35.256494303580595" lon="-120.66382064302678"><ele>44.833333333333336</ele><time>2026-04-20T13:53:43Z</time></trkpt><trkpt lat="35.25651685761305" lon="-120.66396582008791"><ele>45.0</ele><time>2026-04-20T13:53:45Z</time></trkpt><trkpt lat="35.25653574083087" lon="-120.66410094352048"><ele>45.0</ele><time>2026-04-20T13:53:47Z</time></trkpt><trkpt lat="35.25653926411983" lon="-120.66424235603073"><ele>45.0</ele><time>2026-04-20T13:53:49Z</time></trkpt><trkpt lat="35.256565642304025" lon="-120.66436565456803"><ele>45.0</ele><time>2026-04-20T13:53:51Z</time></trkpt><trkpt lat="35.25657667361763" lon="-120.66447465743819"><ele>45.0</ele><time>2026-04-20T13:53:53Z</time></trkpt><trkpt lat="35.25658789050487" lon="-120.66459005896454"><ele>45.0</ele><time>2026-04-20T13:53:55Z</time></trkpt><trkpt lat="35.25659629272196" lon="-120.66469783772497"><ele>45.333333333333336</ele><time>2026-04-20T13:53:57Z</time></trkpt><trkpt lat="35.25661939898184" lon="-120.66480451002387"><ele>45.666666666666664</ele><time>2026-04-20T13:53:59Z</time></trkpt><trkpt lat="35.256628089797594" lon="-120.66490538055342"><ele>46.0</ele><time>2026-04-20T13:54:01Z</time></trkpt><trkpt lat="35.25664374357555" lon="-120.66500753184295"><ele>46.33333333333333</ele><time>2026-04-20T13:54:03Z</time></trkpt><trkpt lat="35.25664719546767" lon="-120.66510532438488"><ele>46.666666666666664</ele><time>2026-04-20T13:54:05Z</time></trkpt><trkpt lat="35.25658985313046" lon="-120.66517207197649"><ele>47.0</ele><time>2026-04-20T13:54:07Z</time></trkpt><trkpt lat="35.25651359339234" lon="-120.66514167394322"><ele>47.0</ele><time>2026-04-20T13:54:09Z</time></trkpt><trkpt lat="35.256508506309586" lon="-120.66500473154545"><ele>47.0</ele><time>2026-04-20T13:54:11Z</time></trkpt><trkpt lat="35.25650141237761" lon="-120.66489676835242"><ele>47.0</ele><time>2026-04-20T13:54:13Z</time></trkpt><trkpt lat="35.256472878695135" lon="-120.66475965233838"><ele>47.0</ele><time>2026-04-20T13:54:15Z</time></trkpt><trkpt lat="35.256466993693124" lon="-120.66460986985919"><ele>47.0</ele><time>2026-04-20T13:54:17Z</time></trkpt><trkpt lat="35.256456300084494" lon="-120.66453328040997"><ele>46.666666666666664</ele><time>2026-04-20T13:54:18Z</time></trkpt><trkpt lat="35.25644157795279" lon="-120.6644515074064"><ele>46.33333333333333</ele><time>2026-04-20T13:54:19Z</time></trkpt><trkpt lat="35.256422430875745" lon="-120.66429709394492"><ele>46.0</ele><time>2026-04-20T13:54:21Z</time></trkpt><trkpt lat="35.25640939282671" lon="-120.66421844651966"><ele>45.666666666666664</ele><time>2026-04-20T13:54:22Z</time></trkpt><trkpt lat="35.2563962613526" lon="-120.66413999827446"><ele>45.333333333333336</ele><time>2026-04-20T13:54:23Z</time></trkpt><trkpt lat="35.25638876176513" lon="-120.6640628928061"><ele>45.0</ele><time>2026-04-20T13:54:24Z</time></trkpt><trkpt lat="35.25638110588028" lon="-120.66397801964342"><ele>45.0</ele><time>2026-04-20T13:54:25Z</time></trkpt><trkpt lat="35.25636729697613" lon="-120.66389168145824"><ele>45.0</ele><time>2026-04-20T13:54:26Z</time></trkpt><trkpt lat="35.25635776241916" lon="-120.66380803855587"><ele>45.0</ele><time>2026-04-20T13:54:27Z</time></trkpt><trkpt lat="35.25635735926188" lon="-120.66372705668171"><ele>45.0</ele><time>2026-04-20T13:54:28Z</time></trkpt><trkpt lat="35.256336623733525" lon="-120.6636525667414"><ele>45.0</ele><time>2026-04-20T13:54:29Z</time></trkpt><trkpt lat="35.25628992884093" lon="-120.66359262125806"><ele>45.0</ele><time>2026-04-20T13:54:30Z</time></trkpt><trkpt lat="35.256227018474014" lon="-120.66355602870777"><ele>45.0</ele><time>2026-04-20T13:54:31Z</time></trkpt><trkpt lat="35.25616227526937" lon="-120.66354687098094"><ele>45.0</ele><time>2026-04-20T13:54:32Z</time></trkpt><trkpt lat="35.25609899680286" lon="-120.6635628387708"><ele>45.0</ele><time>2026-04-20T13:54:33Z</time></trkpt><trkpt lat="35.25603112442954" lon="-120.66359490325083"><ele>45.0</ele><time>2026-04-20T13:54:34Z</time></trkpt><trkpt lat="35.25592359926369" lon="-120.66361724480102"><ele>45.0</ele><time>2026-04-20T13:54:36Z</time></trkpt><trkpt lat="35.25585872024501" lon="-120.66362449466376"><ele>45.0</ele><time>2026-04-20T13:54:37Z</time></trkpt><trkpt lat="35.25574540282214" lon="-120.6636416234275"><ele>45.0</ele><time>2026-04-20T13:54:39Z</time></trkpt><trkpt lat="35.25563527437677" lon="-120.66363815738963"><ele>44.2</ele><time>2026-04-20T13:54:41Z</time></trkpt><trkpt lat="35.25553479320649" lon="-120.6636377111559"><ele>43.4</ele><time>2026-04-20T13:54:43Z</time></trkpt><trkpt lat="35.25551978435858" lon="-120.66376201076808"><ele>42.599999999999994</ele><time>2026-04-20T13:54:44Z</time></trkpt><trkpt lat="35.25554198368785" lon="-120.66388360895492"><ele>41.8</ele><time>2026-04-20T13:54:46Z</time></trkpt><trkpt lat="35.255546505359725" lon="-120.66402037515199"><ele>41.0</ele><time>2026-04-20T13:54:48Z</time></trkpt><trkpt lat="35.255540289433085" lon="-120.66415264482708"><ele>41.0</ele><time>2026-04-20T13:54:50Z</time></trkpt><trkpt lat="35.25555519465566" lon="-120.6642838978622"><ele>41.0</ele><time>2026-04-20T13:54:52Z</time></trkpt><trkpt lat="35.255529901017375" lon="-120.66442556602235"><ele>41.0</ele><time>2026-04-20T13:54:54Z</time></trkpt><trkpt lat="35.25549510414149" lon="-120.66456293643452"><ele>41.0</ele><time>2026-04-20T13:54:56Z</time></trkpt><trkpt lat="35.255301652477876" lon="-120.66450563973285"><ele>41.0</ele><time>2026-04-20T13:54:57.999Z</time></trkpt><trkpt lat="35.255178774623005" lon="-120.66450028483764"><ele>41.0</ele><time>2026-04-20T13:54:59.999Z</time></trkpt><trkpt lat="35.25508653525441" lon="-120.66442144929282"><ele>41.0</ele><time>2026-04-20T13:55:01.999Z</time></trkpt><trkpt lat="35.2550026681204" lon="-120.66442490354088"><ele>41.0</ele><time>2026-04-20T13:55:02.999Z</time></trkpt><trkpt lat="35.25491053183213" lon="-120.66454922643055"><ele>41.285714285714285</ele><time>2026-04-20T13:55:03.999Z</time></trkpt><trkpt lat="35.25484574080777" lon="-120.66454681727498"><ele>41.57142857142857</ele><time>2026-04-20T13:55:04.999Z</time></trkpt><trkpt lat="35.25477887035936" lon="-120.66454545085358"><ele>41.85714285714286</ele><time>2026-04-20T13:55:05.999Z</time></trkpt><trkpt lat="35.254715866040044" lon="-120.66454427575417"><ele>42.14285714285714</ele><time>2026-04-20T13:55:06.999Z</time></trkpt><trkpt lat="35.25465082106773" lon="-120.66454263378037"><ele>42.42857142857143</ele><time>2026-04-20T13:55:07.999Z</time></trkpt><trkpt lat="35.2545854046931" lon="-120.66454195476567"><ele>42.714285714285715</ele><time>2026-04-20T13:55:08.999Z</time></trkpt><trkpt lat="35.254520066594594" lon="-120.66454387623519"><ele>43.0</ele><time>2026-04-20T13:55:09.999Z</time></trkpt><trkpt lat="35.2543951075771" lon="-120.66454580022182"><ele>43.2</ele><time>2026-04-20T13:55:11.999Z</time></trkpt><trkpt lat="35.25427753453148" lon="-120.66454570293502"><ele>43.4</ele><time>2026-04-20T13:55:13.999Z</time></trkpt><trkpt lat="35.254200530502686" lon="-120.66454593564691"><ele>43.6</ele><time>2026-04-20T13:55:15.999Z</time></trkpt><trkpt lat="35.2541608730777" lon="-120.66461422660382"><ele>43.800000000000004</ele><time>2026-04-20T13:55:17.999Z</time></trkpt><trkpt lat="35.25416542755608" lon="-120.66473276635266"><ele>44.0</ele><time>2026-04-20T13:55:19.999Z</time></trkpt><trkpt lat="35.25411557693018" lon="-120.66482813279387"><ele>44.0</ele><time>2026-04-20T13:55:21.999Z</time></trkpt><trkpt lat="35.25410173958585" lon="-120.66493888808517"><ele>44.0</ele><time>2026-04-20T13:55:23.999Z</time></trkpt><trkpt lat="35.25409999621529" lon="-120.6650729896642"><ele>44.0</ele><time>2026-04-20T13:55:25.999Z</time></trkpt><trkpt lat="35.2540914364483" lon="-120.66521519768294"><ele>44.0</ele><time>2026-04-20T13:55:27.999Z</time></trkpt><trkpt lat="35.254078431406256" lon="-120.66535831695622"><ele>44.0</ele><time>2026-04-20T13:55:29.999Z</time></trkpt><trkpt lat="35.2540788495769" lon="-120.66550531246023"><ele>43.5</ele><time>2026-04-20T13:55:32Z</time></trkpt><trkpt lat="35.254077797832984" lon="-120.66564835067224"><ele>43.0</ele><time>2026-04-20T13:55:34Z</time></trkpt><trkpt lat="35.25407858669058" lon="-120.66579476888325"><ele>42.5</ele><time>2026-04-20T13:55:36Z</time></trkpt><trkpt lat="35.25407854119588" lon="-120.66593830396181"><ele>42.0</ele><time>2026-04-20T13:55:38Z</time></trkpt><trkpt lat="35.254078104537804" lon="-120.66607993726053"><ele>42.0</ele><time>2026-04-20T13:55:40Z</time></trkpt><trkpt lat="35.25407769282312" lon="-120.66621348222681"><ele>42.0</ele><time>2026-04-20T13:55:42Z</time></trkpt><trkpt lat="35.25407705748656" lon="-120.66634278212574"><ele>42.0</ele><time>2026-04-20T13:55:44Z</time></trkpt><trkpt lat="35.25411507285938" lon="-120.66640894079059"><ele>42.0</ele><time>2026-04-20T13:55:45Z</time></trkpt><trkpt lat="35.25411961842096" lon="-120.66654156153628"><ele>42.0</ele><time>2026-04-20T13:55:47Z</time></trkpt><trkpt lat="35.254127365696355" lon="-120.66668129085095"><ele>42.0</ele><time>2026-04-20T13:55:49Z</time></trkpt><trkpt lat="35.25412239564679" lon="-120.66680577308163"><ele>42.0</ele><time>2026-04-20T13:55:51Z</time></trkpt><trkpt lat="35.25408293088993" lon="-120.66692375554511"><ele>42.0</ele><time>2026-04-20T13:55:53Z</time></trkpt><trkpt lat="35.25399807328365" lon="-120.66700494847971"><ele>42.0</ele><time>2026-04-20T13:55:55Z</time></trkpt><trkpt lat="35.25390474922264" lon="-120.66705057169627"><ele>42.0</ele><time>2026-04-20T13:55:57Z</time></trkpt><trkpt lat="35.253801305075925" lon="-120.66706582189776"><ele>42.400000000000006</ele><time>2026-04-20T13:55:59Z</time></trkpt><trkpt lat="35.25369102957669" lon="-120.66707742160916"><ele>42.800000000000004</ele><time>2026-04-20T13:56:01Z</time></trkpt><trkpt lat="35.25357113694811" lon="-120.66706530661125"><ele>43.2</ele><time>2026-04-20T13:56:03Z</time></trkpt><trkpt lat="35.25345543582056" lon="-120.66706279806377"><ele>43.6</ele><time>2026-04-20T13:56:05Z</time></trkpt><trkpt lat="35.25339252454592" lon="-120.66706969739862"><ele>44.0</ele><time>2026-04-20T13:56:06Z</time></trkpt><trkpt lat="35.2532766246143" lon="-120.66706808609078"><ele>44.0</ele><time>2026-04-20T13:56:08Z</time></trkpt><trkpt lat="35.253158618343974" lon="-120.66706781971651"><ele>44.0</ele><time>2026-04-20T13:56:10Z</time></trkpt><trkpt lat="35.25303894285498" lon="-120.66706644362876"><ele>44.0</ele><time>2026-04-20T13:56:12Z</time></trkpt><trkpt lat="35.25292422894104" lon="-120.66707030228288"><ele>44.0</ele><time>2026-04-20T13:56:14Z</time></trkpt><trkpt lat="35.25281086561003" lon="-120.66708121826883"><ele>44.0</ele><time>2026-04-20T13:56:16Z</time></trkpt><trkpt lat="35.25270315544193" lon="-120.66705313580599"><ele>44.0</ele><time>2026-04-20T13:56:18Z</time></trkpt><trkpt lat="35.25260262767851" lon="-120.66702476284483"><ele>44.0</ele><time>2026-04-20T13:56:20Z</time></trkpt><trkpt lat="35.25253372974455" lon="-120.66692376319934"><ele>44.0</ele><time>2026-04-20T13:56:22Z</time></trkpt><trkpt lat="35.25248210678372" lon="-120.66679850054388"><ele>44.0</ele><time>2026-04-20T13:56:24Z</time></trkpt><trkpt lat="35.252474709125345" lon="-120.66664770094039"><ele>44.0</ele><time>2026-04-20T13:56:26Z</time></trkpt><trkpt lat="35.252481015768716" lon="-120.66649964756894"><ele>44.0</ele><time>2026-04-20T13:56:28Z</time></trkpt><trkpt lat="35.25248272499197" lon="-120.66635469588293"><ele>44.0</ele><time>2026-04-20T13:56:30Z</time></trkpt><trkpt lat="35.25248069282372" lon="-120.66619532565473"><ele>44.0</ele><time>2026-04-20T13:56:32Z</time></trkpt><trkpt lat="35.252477465588235" lon="-120.66604255115229"><ele>44.0</ele><time>2026-04-20T13:56:34Z</time></trkpt><trkpt lat="35.252474807199725" lon="-120.66596531900856"><ele>44.0</ele><time>2026-04-20T13:56:35Z</time></trkpt><trkpt lat="35.25245955787559" lon="-120.6658873734787"><ele>44.0</ele><time>2026-04-20T13:56:36Z</time></trkpt><trkpt lat="35.2524248203712" lon="-120.66582088314783"><ele>44.0</ele><time>2026-04-20T13:56:37Z</time></trkpt><trkpt lat="35.252378775809056" lon="-120.6657607477741"><ele>44.0</ele><time>2026-04-20T13:56:38Z</time></trkpt><trkpt lat="35.25232525570093" lon="-120.66571870008313"><ele>44.0</ele><time>2026-04-20T13:56:39Z</time></trkpt><trkpt lat="35.25220487733263" lon="-120.66571502265516"><ele>44.0</ele><time>2026-04-20T13:56:41Z</time></trkpt><trkpt lat="35.25208656317883" lon="-120.66569800162303"><ele>43.5</ele><time>2026-04-20T13:56:43Z</time></trkpt><trkpt lat="35.25196540874457" lon="-120.66569492843695"><ele>43.0</ele><time>2026-04-20T13:56:45Z</time></trkpt><trkpt lat="35.251841250694866" lon="-120.66569775785652"><ele>42.5</ele><time>2026-04-20T13:56:47Z</time></trkpt><trkpt lat="35.251723441138495" lon="-120.66569656309628"><ele>42.0</ele><time>2026-04-20T13:56:49Z</time></trkpt><trkpt lat="35.25160201326581" lon="-120.6656958469441"><ele>42.0</ele><time>2026-04-20T13:56:51Z</time></trkpt><trkpt lat="35.25148571204629" lon="-120.665695158599"><ele>42.0</ele><time>2026-04-20T13:56:53Z</time></trkpt><trkpt lat="35.25140001682438" lon="-120.66569465318987"><ele>42.0</ele><time>2026-04-20T13:56:55Z</time></trkpt><trkpt lat="35.25118481674984" lon="-120.66585459967268"><ele>44.0</ele><time>2026-04-20T13:57:05Z</time></trkpt><trkpt lat="35.251329397835114" lon="-120.6659159023399"><ele>44.0</ele><time>2026-04-20T13:57:08.999Z</time></trkpt><trkpt lat="35.25132715768438" lon="-120.66599846688955"><ele>44.0</ele><time>2026-04-20T13:57:21.999Z</time></trkpt></trkseg></trk></gpx>